createdAt,value
2023-01-30T00:01:22.081Z,19.17
2023-01-30T00:03:52.691Z,23.52
2023-01-30T00:06:19.693Z,23.92
2023-01-30T00:08:46.410Z,20.38
2023-01-30T00:11:13.946Z,22.92
2023-01-30T00:13:47.500Z,19.85
2023-01-30T00:16:14.715Z,20.42
2023-01-30T00:18:41.465Z,20.75
2023-01-30T00:21:09.219Z,25.88
2023-01-30T00:23:47.967Z,25.45
2023-01-30T00:26:21.429Z,21.17
2023-01-30T00:28:47.818Z,21.35
2023-01-30T00:31:14.348Z,18.95
2023-01-30T00:33:40.797Z,20.33
2023-01-30T00:36:07.638Z,21.67
2023-01-30T00:38:34.074Z,22.02
2023-01-30T00:41:00.707Z,18.38
2023-01-30T00:43:31.735Z,21.80
2023-01-30T00:45:58.273Z,22.17
2023-01-30T00:48:30.451Z,21.23
2023-01-30T00:50:58.718Z,26.83
2023-01-30T00:53:25.307Z,25.65
2023-01-30T00:55:52.414Z,21.75
2023-01-30T00:58:19.728Z,18.08
2023-01-30T01:00:46.585Z,24.42
2023-01-30T01:03:13.082Z,19.25
2023-01-30T01:05:41.452Z,20.17
2023-01-30T01:08:07.899Z,19.98
2023-01-30T01:10:39.194Z,24.52
2023-01-30T01:13:09.737Z,24.15
2023-01-30T01:18:07.889Z,23.65
2023-01-30T01:20:34.528Z,19.20
2023-01-30T01:23:08.926Z,22.33
2023-01-30T01:25:36.408Z,22.98
2023-01-30T01:28:03.514Z,20.92
2023-01-30T01:30:37.244Z,20.40
2023-01-30T01:33:03.767Z,22.37
2023-01-30T01:35:30.400Z,20.95
2023-01-30T01:38:02.397Z,21.88
2023-01-30T01:40:28.933Z,19.58
2023-01-30T01:43:03.807Z,20.35
2023-01-30T01:45:33.301Z,18.95
2023-01-30T01:48:05.624Z,19.33
2023-01-30T01:50:40.418Z,21.60
2023-01-30T01:53:08.508Z,20.75
2023-01-30T01:55:35.084Z,21.83
2023-01-30T01:58:09.740Z,20.17
2023-01-30T02:03:15.566Z,18.27
2023-01-30T02:05:46.697Z,20.70
2023-01-30T02:08:17.953Z,17.92
2023-01-30T02:10:44.312Z,20.17
2023-01-30T02:13:11.896Z,18.40
2023-01-30T02:15:38.914Z,18.00
2023-01-30T02:18:14.960Z,17.98
2023-01-30T02:20:59.966Z,18.35
2023-01-30T02:23:45.110Z,20.30
2023-01-30T02:26:12.885Z,19.30
2023-01-30T02:29:08.542Z,18.85
2023-01-30T02:31:50.985Z,21.42
2023-01-30T02:34:35.001Z,21.17
2023-01-30T02:37:33.072Z,22.40
2023-01-30T02:40:16.344Z,21.23
2023-01-30T02:43:09.332Z,19.73
2023-01-30T02:45:35.736Z,17.15
2023-01-30T02:48:05.900Z,18.02
2023-01-30T02:50:32.826Z,19.83
2023-01-30T02:53:00.381Z,18.70
2023-01-30T02:55:28.449Z,17.33
2023-01-30T02:57:55.226Z,16.55
2023-01-30T03:00:42.804Z,21.25
2023-01-30T03:03:24.608Z,21.05
2023-01-30T03:05:51.071Z,19.95
2023-01-30T03:08:28.090Z,21.27
2023-01-30T03:10:57.285Z,20.05
2023-01-30T03:13:38.300Z,20.70
2023-01-30T03:16:10.483Z,17.60
2023-01-30T03:18:48.242Z,18.88
2023-01-30T03:21:14.899Z,17.30
2023-01-30T03:23:58.605Z,18.02
2023-01-30T03:26:30.713Z,20.52
2023-01-30T03:28:59.431Z,19.17
2023-01-30T03:31:26.027Z,20.52
2023-01-30T03:33:52.489Z,21.35
2023-01-30T03:36:19.347Z,17.10
2023-01-30T03:38:54.307Z,20.13
2023-01-30T03:41:24.041Z,20.77
2023-01-30T03:43:50.578Z,18.25
2023-01-30T03:46:17.076Z,21.58
2023-01-30T03:48:43.601Z,17.80
2023-01-30T03:51:18.416Z,19.30
2023-01-30T03:53:44.849Z,21.08
2023-01-30T03:56:13.565Z,17.27
2023-01-30T03:58:40.131Z,15.63
2023-01-30T04:01:24.726Z,19.27
2023-01-30T04:04:00.059Z,15.48
2023-01-30T04:06:26.791Z,16.55
2023-01-30T04:08:56.843Z,19.25
2023-01-30T04:11:25.722Z,18.52
2023-01-30T04:13:56.804Z,16.50
2023-01-30T04:16:25.153Z,20.05
2023-01-30T04:18:55.741Z,17.30
2023-01-30T04:21:22.194Z,18.42
2023-01-30T04:23:52.813Z,18.08
2023-01-30T04:26:20.684Z,15.27
2023-01-30T04:28:48.992Z,18.42
2023-01-30T04:31:21.864Z,16.40
2023-01-30T04:33:48.691Z,15.90
2023-01-30T04:36:15.349Z,16.27
2023-01-30T04:38:49.452Z,18.27
2023-01-30T04:41:15.893Z,14.75
2023-01-30T04:43:45.593Z,20.23
2023-01-30T04:46:12.394Z,20.00
2023-01-30T04:48:39.255Z,17.65
2023-01-30T04:51:15.063Z,16.73
2023-01-30T04:53:41.523Z,14.50
2023-01-30T04:56:07.899Z,16.92
2023-01-30T04:58:38.182Z,16.98
2023-01-30T05:01:15.496Z,16.42
2023-01-30T05:03:42.240Z,16.90
2023-01-30T05:06:08.680Z,13.52
2023-01-30T05:08:35.199Z,19.45
2023-01-30T05:11:08.190Z,13.32
2023-01-30T05:13:34.624Z,12.45
2023-01-30T05:16:04.637Z,14.07
2023-01-30T05:18:31.024Z,16.95
2023-01-30T05:21:07.038Z,13.73
2023-01-30T05:23:33.486Z,15.07
2023-01-30T05:26:01.869Z,13.93
2023-01-30T05:28:30.855Z,16.15
2023-01-30T05:31:07.948Z,13.73
2023-01-30T05:33:34.440Z,13.45
2023-01-30T05:36:01.940Z,11.50
2023-01-30T05:38:29.021Z,14.45
2023-01-30T05:41:01.348Z,11.88
2023-01-30T05:43:33.534Z,13.30
2023-01-30T05:46:04.864Z,11.30
2023-01-30T05:48:32.965Z,11.70
2023-01-30T05:51:00.654Z,15.90
2023-01-30T05:53:35.046Z,14.82
2023-01-30T05:56:10.492Z,11.13
2023-01-30T05:58:39.978Z,12.90
2023-01-30T06:01:08.558Z,13.10
2023-01-30T06:03:35.796Z,13.00
2023-01-30T06:06:04.304Z,10.18
2023-01-30T06:08:30.811Z,11.48
2023-01-30T06:11:07.927Z,14.05
2023-01-30T06:13:41.555Z,10.70
2023-01-30T06:16:17.454Z,9.65
2023-01-30T06:18:54.213Z,10.68
2023-01-30T06:21:27.134Z,10.52
2023-01-30T06:23:56.114Z,9.25
2023-01-30T06:26:29.120Z,11.05
2023-01-30T06:29:02.211Z,14.20
2023-01-30T06:31:29.016Z,12.30
2023-01-30T06:33:55.430Z,11.07
2023-01-30T06:36:36.345Z,12.38
2023-01-30T06:39:06.080Z,12.55
2023-01-30T06:41:32.893Z,10.57
2023-01-30T06:43:59.494Z,12.63
2023-01-30T06:46:26.017Z,14.05
2023-01-30T06:49:03.584Z,12.30
2023-01-30T06:51:42.558Z,11.80
2023-01-30T06:54:10.986Z,13.00
2023-01-30T06:56:40.514Z,11.25
2023-01-30T06:59:19.624Z,13.07
2023-01-30T07:02:03.762Z,12.15
2023-01-30T07:04:34.400Z,12.85
2023-01-30T07:07:22.164Z,14.35
2023-01-30T07:10:07.032Z,12.57
2023-01-30T07:12:38.540Z,15.32
2023-01-30T07:15:05.739Z,12.65
2023-01-30T07:17:32.747Z,15.52
2023-01-30T07:19:59.512Z,12.50
2023-01-30T07:22:35.532Z,10.98
2023-01-30T07:25:08.010Z,13.95
2023-01-30T07:28:19.938Z,15.15
2023-01-30T07:30:35.542Z,14.90
2023-01-30T07:33:02.878Z,15.90
2023-01-30T07:35:40.559Z,12.98
2023-01-30T07:38:06.993Z,13.85
2023-01-30T07:40:40.680Z,13.88
2023-01-30T07:45:53.579Z,14.48
2023-01-30T07:48:20.336Z,13.88
2023-01-30T07:50:53.071Z,14.88
2023-01-30T07:53:19.576Z,19.17
2023-01-30T07:55:46.114Z,13.55
2023-01-30T07:58:13.566Z,15.35
2023-01-30T08:00:41.000Z,12.25
2023-01-30T08:03:11.429Z,13.70
2023-01-30T08:05:37.891Z,11.95
2023-01-30T08:08:04.346Z,9.93
2023-01-30T08:13:08.693Z,14.02
2023-01-30T08:15:35.183Z,13.75
2023-01-30T08:18:05.238Z,14.45
2023-01-30T08:20:31.694Z,13.23
2023-01-30T08:23:05.745Z,13.23
2023-01-30T08:25:40.898Z,12.75
2023-01-30T08:28:07.347Z,12.02
2023-01-30T08:30:33.842Z,11.85
2023-01-30T08:33:02.199Z,12.75
2023-01-30T08:35:30.475Z,12.40
2023-01-30T08:37:58.063Z,11.70
2023-01-30T08:40:30.715Z,9.63
2023-01-30T08:42:59.496Z,10.00
2023-01-30T08:45:27.069Z,10.52
2023-01-30T08:47:53.492Z,9.80
2023-01-30T08:50:20.202Z,9.82
2023-01-30T08:52:50.719Z,11.63
2023-01-30T08:55:17.225Z,10.07
2023-01-30T08:57:43.926Z,11.27
2023-01-30T09:00:10.883Z,12.20
2023-01-30T09:02:38.022Z,11.23
2023-01-30T09:05:12.096Z,11.13
2023-01-30T09:07:38.530Z,11.02
2023-01-30T09:12:45.503Z,11.52
2023-01-30T09:15:17.952Z,10.23
2023-01-30T09:17:44.537Z,10.07
2023-01-30T09:20:11.260Z,8.70
2023-01-30T09:22:37.930Z,11.25
2023-01-30T09:25:11.456Z,8.05
2023-01-30T09:27:39.163Z,8.98
2023-01-30T09:30:06.244Z,9.68
2023-01-30T09:32:39.407Z,9.65
2023-01-30T09:35:18.919Z,10.18
2023-01-30T09:37:53.460Z,6.20
2023-01-30T09:40:23.683Z,5.65
2023-01-30T09:42:55.631Z,9.07
2023-01-30T09:45:21.998Z,8.13
2023-01-30T09:48:06.411Z,6.88
2023-01-30T09:51:02.725Z,6.63
2023-01-30T09:53:48.206Z,6.95
2023-01-30T09:56:17.174Z,6.07
2023-01-30T09:58:44.093Z,7.35
2023-01-30T10:01:16.893Z,7.53
2023-01-30T10:04:04.177Z,8.90
2023-01-30T10:06:33.618Z,7.00
2023-01-30T10:09:11.439Z,7.65
2023-01-30T10:11:44.649Z,8.05
2023-01-30T10:17:19.134Z,9.63
2023-01-30T10:19:54.660Z,9.25
2023-01-30T10:22:21.187Z,9.05
2023-01-30T10:24:50.675Z,10.27
2023-01-30T10:27:18.205Z,6.32
2023-01-30T10:29:49.838Z,6.40
2023-01-30T10:32:19.989Z,10.38
2023-01-30T10:34:49.670Z,10.02
2023-01-30T10:37:21.139Z,8.20
2023-01-30T10:40:01.252Z,11.25
2023-01-30T10:42:40.463Z,9.40
2023-01-30T10:45:11.973Z,7.82
2023-01-30T10:48:05.901Z,10.23
2023-01-30T10:50:55.496Z,10.82
2023-01-30T10:53:28.365Z,8.30
2023-01-30T10:56:17.294Z,12.02
2023-01-30T10:58:48.789Z,10.75
2023-01-30T11:01:24.256Z,12.93
2023-01-30T11:03:55.165Z,11.90
2023-01-30T11:06:23.615Z,14.50
2023-01-30T11:08:56.450Z,15.88
2023-01-30T11:11:42.993Z,18.48
2023-01-30T11:14:11.162Z,14.00
2023-01-30T11:16:43.779Z,17.02
2023-01-30T11:19:25.737Z,16.83
2023-01-30T11:22:00.005Z,17.38
2023-01-30T11:24:51.801Z,15.90
2023-01-30T11:27:18.315Z,16.02
2023-01-30T11:29:50.180Z,18.63
2023-01-30T11:32:24.807Z,13.30
2023-01-30T11:37:42.277Z,17.55
2023-01-30T11:40:15.004Z,17.30
2023-01-30T11:42:43.962Z,15.40
2023-01-30T11:45:17.600Z,15.25
2023-01-30T11:48:23.512Z,17.15
2023-01-30T11:50:59.892Z,15.68
2023-01-30T11:53:43.305Z,18.70
2023-01-30T11:56:19.836Z,17.85
2023-01-30T11:58:55.284Z,17.73
2023-01-30T12:01:21.665Z,16.73
2023-01-30T12:03:50.203Z,17.02
2023-01-30T12:06:23.879Z,16.73
2023-01-30T12:09:08.020Z,19.08
2023-01-30T12:12:11.699Z,17.38
2023-01-30T12:14:40.827Z,15.65
2023-01-30T12:17:20.308Z,16.45
2023-01-30T12:20:12.563Z,18.15
2023-01-30T12:22:46.472Z,17.13
2023-01-30T12:25:22.017Z,19.58
2023-01-30T12:30:35.477Z,20.70
2023-01-30T12:33:03.307Z,16.17
2023-01-30T12:35:47.284Z,16.85
2023-01-30T12:38:35.480Z,18.15
2023-01-30T12:41:19.325Z,16.85
2023-01-30T12:44:01.815Z,14.88
2023-01-30T12:46:42.451Z,14.85
2023-01-30T12:49:24.965Z,12.65
2023-01-30T12:52:09.674Z,13.40
2023-01-30T12:54:36.697Z,14.43
2023-01-30T12:57:15.086Z,14.18
2023-01-30T12:59:55.157Z,15.63
2023-01-30T13:02:30.624Z,13.23
2023-01-30T13:05:03.953Z,14.48
2023-01-30T13:07:30.891Z,15.20
2023-01-30T13:10:08.103Z,16.45
2023-01-30T13:12:53.450Z,16.05
2023-01-30T13:15:23.059Z,15.48
2023-01-30T13:18:15.834Z,15.07
2023-01-30T13:21:00.368Z,17.80
2023-01-30T13:23:32.433Z,17.40
2023-01-30T13:26:19.827Z,15.07
2023-01-30T13:28:56.372Z,16.23
2023-01-30T13:31:27.768Z,16.08
2023-01-30T13:34:11.531Z,19.60
2023-01-30T13:36:51.306Z,20.63
2023-01-30T13:42:20.237Z,16.95
2023-01-30T13:44:49.173Z,21.05
2023-01-30T13:47:26.847Z,20.27
2023-01-30T13:49:53.330Z,17.95
2023-01-30T13:52:19.733Z,19.73
2023-01-30T13:55:04.343Z,18.20
2023-01-30T13:57:50.846Z,19.67
2023-01-30T14:00:38.833Z,19.13
2023-01-30T14:03:23.860Z,19.42
2023-01-30T14:05:56.898Z,18.85
2023-01-30T14:08:28.660Z,17.77
2023-01-30T14:10:56.337Z,18.10
2023-01-30T14:16:05.291Z,14.30
2023-01-30T14:18:35.959Z,19.00
2023-01-30T14:21:13.152Z,19.90
2023-01-30T14:23:59.503Z,18.98
2023-01-30T14:26:44.814Z,21.60
2023-01-30T14:29:43.783Z,20.30
2023-01-30T14:32:13.668Z,21.10
2023-01-30T14:34:44.255Z,20.13
2023-01-30T14:37:34.340Z,20.50
2023-01-30T14:40:23.526Z,20.40
2023-01-30T14:43:13.509Z,21.02
2023-01-30T14:45:47.114Z,21.45
2023-01-30T14:48:33.370Z,21.55
2023-01-30T14:51:12.060Z,21.35
2023-01-30T14:53:52.598Z,21.23
2023-01-30T14:56:19.858Z,21.33
2023-01-30T14:58:57.399Z,20.15
2023-01-30T15:01:25.374Z,18.08
2023-01-30T15:03:52.104Z,17.20
2023-01-30T15:06:19.970Z,20.25
2023-01-30T15:08:47.078Z,20.80
2023-01-30T15:11:19.845Z,19.33
2023-01-30T15:13:52.191Z,22.67
2023-01-30T15:16:34.421Z,20.80
2023-01-30T15:19:03.940Z,19.38
2023-01-30T15:21:30.336Z,23.90
2023-01-30T15:24:05.271Z,22.55
2023-01-30T15:26:57.136Z,20.17
2023-01-30T15:29:52.097Z,20.38
2023-01-30T15:32:22.320Z,22.33
2023-01-30T15:34:50.692Z,24.30
2023-01-30T15:37:30.198Z,23.70
2023-01-30T15:40:12.138Z,22.73
2023-01-30T15:42:44.687Z,24.58
2023-01-30T15:45:20.399Z,26.60
2023-01-30T15:47:46.794Z,25.00
2023-01-30T15:50:18.056Z,22.90
2023-01-30T15:52:46.211Z,27.00
2023-01-30T15:55:35.989Z,22.67
2023-01-30T15:58:22.001Z,26.23
2023-01-30T16:00:53.484Z,26.48
2023-01-30T16:06:09.572Z,30.95
2023-01-30T16:08:39.915Z,26.02
2023-01-30T16:11:08.761Z,23.23
2023-01-30T16:13:35.191Z,28.23
2023-01-30T16:16:07.579Z,28.60
2023-01-30T16:18:39.061Z,28.75
2023-01-30T16:21:14.678Z,29.10
2023-01-30T16:23:42.901Z,30.38
2023-01-30T16:26:13.358Z,32.42
2023-01-30T16:28:46.999Z,28.40
2023-01-30T16:31:19.870Z,25.57
2023-01-30T16:33:50.199Z,27.35
2023-01-30T16:36:29.118Z,31.10
2023-01-30T16:38:55.683Z,28.00
2023-01-30T16:41:33.043Z,32.92
2023-01-30T16:44:22.440Z,32.20
2023-01-30T16:46:48.804Z,31.25
2023-01-30T16:49:22.056Z,33.38
2023-01-30T16:51:49.362Z,30.80
2023-01-30T16:54:22.099Z,28.25
2023-01-30T16:56:50.927Z,29.50
2023-01-30T16:59:19.859Z,24.80
2023-01-30T17:01:46.452Z,28.98
2023-01-30T17:04:19.850Z,28.77
2023-01-30T17:06:50.738Z,28.42
2023-01-30T17:09:32.712Z,30.95
2023-01-30T17:11:59.377Z,29.70
2023-01-30T17:14:33.057Z,27.67
2023-01-30T17:19:36.098Z,25.10
2023-01-30T17:22:04.513Z,30.90
2023-01-30T17:24:39.882Z,28.17
2023-01-30T17:27:06.456Z,28.67
2023-01-30T17:29:49.107Z,28.13
2023-01-30T17:32:23.289Z,25.13
2023-01-30T17:34:49.747Z,21.38
2023-01-30T17:37:20.666Z,20.80
2023-01-30T17:39:47.411Z,28.13
2023-01-30T17:42:14.807Z,26.80
2023-01-30T17:44:41.503Z,28.02
2023-01-30T17:47:09.938Z,35.08
2023-01-30T17:49:42.652Z,38.03
2023-01-30T17:52:09.395Z,30.35
2023-01-30T17:54:43.333Z,26.27
2023-01-30T17:57:18.351Z,38.47
2023-01-30T17:59:55.627Z,35.40
2023-01-30T18:02:22.519Z,29.38
2023-01-30T18:04:48.995Z,27.25
2023-01-30T18:07:17.697Z,42.42
2023-01-30T18:09:46.996Z,41.55
2023-01-30T18:12:14.674Z,35.42
2023-01-30T18:14:41.266Z,34.63
2023-01-30T18:17:09.438Z,35.70
2023-01-30T18:19:35.916Z,34.33
2023-01-30T18:22:02.540Z,32.92
2023-01-30T18:24:28.983Z,39.28
2023-01-30T18:26:55.411Z,35.72
2023-01-30T18:29:22.576Z,35.10
2023-01-30T18:32:12.726Z,29.92
2023-01-30T18:34:39.277Z,32.60
2023-01-30T18:37:05.933Z,32.53
2023-01-30T18:39:32.468Z,33.63
2023-01-30T18:41:59.057Z,33.53
2023-01-30T18:44:25.556Z,30.80
2023-01-30T18:46:57.604Z,31.83
2023-01-30T18:49:32.845Z,31.60
2023-01-30T18:51:59.225Z,35.72
2023-01-30T18:54:25.643Z,34.72
2023-01-30T18:56:55.711Z,31.20
2023-01-30T18:59:22.218Z,31.30
2023-01-30T19:02:03.346Z,36.97
2023-01-30T19:04:36.100Z,34.50
2023-01-30T19:07:19.451Z,38.22
2023-01-30T19:10:06.055Z,30.27
2023-01-30T19:12:36.092Z,33.70
2023-01-30T19:15:24.953Z,34.80
2023-01-30T19:17:59.169Z,39.45
2023-01-30T19:20:36.189Z,42.65
2023-01-30T19:23:28.060Z,41.88
2023-01-30T19:25:56.172Z,38.30
2023-01-30T19:28:22.756Z,37.75
2023-01-30T19:30:55.242Z,34.45
2023-01-30T19:33:31.084Z,34.92
2023-01-30T19:36:09.469Z,40.67
2023-01-30T19:38:38.905Z,35.72
2023-01-30T19:41:10.111Z,29.95
2023-01-30T19:43:37.619Z,31.13
2023-01-30T19:46:35.074Z,30.77
2023-01-30T19:49:19.454Z,29.30
2023-01-30T19:51:55.506Z,35.28
2023-01-30T19:54:36.954Z,34.30
2023-01-30T19:57:12.349Z,34.03
2023-01-30T19:59:45.371Z,37.45
2023-01-30T20:02:18.581Z,29.75
2023-01-30T20:04:44.948Z,43.45
2023-01-30T20:07:27.677Z,38.13
2023-01-30T20:10:11.578Z,37.65
2023-01-30T20:12:51.347Z,40.95
2023-01-30T20:15:30.477Z,37.15
2023-01-30T20:18:33.151Z,40.20
2023-01-30T20:21:05.665Z,39.83
2023-01-30T20:26:45.317Z,36.08
2023-01-30T20:29:23.111Z,42.83
2023-01-30T20:32:22.252Z,41.00
2023-01-30T20:35:07.854Z,39.47
2023-01-30T20:37:49.808Z,40.13
2023-01-30T20:40:29.648Z,33.97
2023-01-30T20:46:28.564Z,39.70
2023-01-30T20:49:15.216Z,36.83
2023-01-30T20:51:47.656Z,36.35
2023-01-30T20:54:32.683Z,37.35
2023-01-30T20:57:18.283Z,32.83
2023-01-30T20:59:47.460Z,34.30
2023-01-30T21:05:27.356Z,39.08
2023-01-30T21:08:00.364Z,36.15
2023-01-30T21:13:15.279Z,39.25
2023-01-30T21:16:07.329Z,38.92
2023-01-30T21:18:44.821Z,42.25
2023-01-30T21:24:32.866Z,41.35
2023-01-30T21:27:09.748Z,35.47
2023-01-30T21:29:40.594Z,37.95
2023-01-30T21:32:16.193Z,40.05
2023-01-30T21:35:05.219Z,38.88
2023-01-30T21:37:39.032Z,41.58
2023-01-30T21:40:12.242Z,39.08
2023-01-30T21:42:46.524Z,41.17
2023-01-30T21:45:23.851Z,40.38
2023-01-30T21:47:56.767Z,40.25
2023-01-30T21:51:12.784Z,38.63
2023-01-30T21:53:20.126Z,36.33
2023-01-30T21:55:57.244Z,36.45
2023-01-30T21:58:36.490Z,34.72
2023-01-30T22:01:13.922Z,40.53
2023-01-30T22:03:41.334Z,34.00
2023-01-30T22:06:18.676Z,30.98
2023-01-30T22:08:47.655Z,33.35
2023-01-30T22:11:25.423Z,35.10
2023-01-30T22:14:04.711Z,47.65
2023-01-30T22:16:38.678Z,32.42
2023-01-30T22:19:05.279Z,35.00
2023-01-30T22:21:40.139Z,36.78
2023-01-30T22:24:48.358Z,37.05
2023-01-30T22:30:04.224Z,33.30
2023-01-30T22:32:30.624Z,32.35
2023-01-30T22:35:06.975Z,33.97
2023-01-30T22:37:34.762Z,36.15
2023-01-30T22:40:05.368Z,38.10
2023-01-30T22:42:36.074Z,35.85
2023-01-30T22:45:02.565Z,36.13
2023-01-30T22:47:29.001Z,36.00
2023-01-30T22:49:55.451Z,32.83
2023-01-30T22:52:34.263Z,35.83
2023-01-30T22:55:05.119Z,38.05
2023-01-30T22:57:31.655Z,39.65
2023-01-30T23:00:01.652Z,36.58
2023-01-30T23:02:40.476Z,35.13
2023-01-30T23:05:34.519Z,44.08
2023-01-30T23:08:07.586Z,39.08
2023-01-30T23:10:56.655Z,41.70
2023-01-30T23:13:40.373Z,44.45
2023-01-30T23:16:20.468Z,39.70
2023-01-30T23:19:01.946Z,39.47
2023-01-30T23:21:45.874Z,31.60
2023-01-30T23:27:03.682Z,35.85
2023-01-30T23:29:57.122Z,36.65
2023-01-30T23:32:34.456Z,32.63
2023-01-30T23:35:27.171Z,32.38
2023-01-30T23:38:06.561Z,32.03
2023-01-30T23:40:43.418Z,33.83
2023-01-30T23:43:23.317Z,46.10
2023-01-30T23:46:05.763Z,43.22
2023-01-30T23:48:44.468Z,40.88
2023-01-30T23:51:24.830Z,41.92
2023-01-30T23:54:09.863Z,41.58
2023-01-30T23:56:55.050Z,29.10
2023-01-30T23:59:41.056Z,41.38
